Gallatin Field
KBZN : now visible

Airfield :











YOU CAN JOIN US ON...

 
LOGIN :

Register | Disclaimer

   EN    FR    IT 

 









Legend :    VFR   Marginal VFR   IFR   Intensive IFR   Very Intensive IFR
Visi :
Ceiling :
>= 8 km
>= 3000ft
5 to 8 km
1000 to 3000 ft
1500m to 5 km
500 to 1000 ft
800 to 1500m
200 to 500 ft
< 800m
< 200 ft
Symbols :   Thunderstorms  Fog  Heavy snow  Heavy precipitations  Wind > 20 kt






- Airport Elevation : 4473 ft
- IATA code : BZN


KBZN - Gallatin Field

CURRENT METAR :
  • 301456Z 20006KT 10SM CLR 09/01 A3041 RMK AO2 SLP293 T00940006 51014

EXPIRED METARs :
  • 301356Z 12003KT 10SM CLR 02/M02 A3040 RMK AO2 SLP295 T00171017
  • 301256Z 00000KT 10SM CLR 07/M01 A3038 RMK AO2 SLP269 T00671006

TAF KBZN
Valid from the 30 at 12:00 until the 01 at 18:00 UTC


301128Z 3012/0118 VRB06KT P6SM SKC
KZLC FIR / North America



MET'MAP, your aeronautical weather chart ! - Copyright ORBIFLY December 2007 - Disclaimer

ORBIFLY MET'MAP TEAM :

Programming & Development : Alexandra Zaïnal
Concept & original design : Baudouin d'Aumeries
Assistance for programming : Marc-Olivier Méhu
Technical & hardware support : Manuel Goepfert

Contact : metmap@orbifly.com




SOURCES & CREDITS :

   NOAA       Earth
Advisory